Time;durP1;ratioP1;P1;durP2;ratioP2;P2;SDS_P1;SDS_P2;PMS_P1;PMS_P2;Temp;Humidity;BMP_temperature;BMP_pressure;BME280_temperature;BME280_humidity;BME280_pressure;Samples;Min_cycle;Max_cycle;Signal;HPM_P1;HPM_P2
2023/04/24 00:00:22;;;;;;;5.93;1.73;;;;;;;17.31;76.39;99516.47;4936941;29;20115;-90
2023/04/24 00:02:48;;;;;;;4.45;1.83;;;;;;;17.16;77.44;99522.28;4939286;29;20031;-87
2023/04/24 00:05:15;;;;;;;6.95;2.30;;;;;;;17.20;77.49;99514.59;4937845;29;20036;-92
2023/04/24 00:07:44;;;;;;;5.55;2.00;;;;;;;17.18;77.22;99520.16;4937803;29;20035;-86
2023/04/24 00:10:11;;;;;;;9.27;2.63;;;;;;;17.20;77.76;99519.94;4918478;29;20036;-87
2023/04/24 00:12:37;;;;;;;5.32;1.73;;;;;;;17.13;78.92;99517.38;4927670;29;20392;-86
2023/04/24 00:15:04;;;;;;;8.07;2.50;;;;;;;16.97;80.79;99510.78;4938353;29;20299;-88
2023/04/24 00:17:30;;;;;;;8.00;1.80;;;;;;;17.08;79.89;99513.72;4938770;29;20428;-86
2023/04/24 00:19:59;;;;;;;10.77;2.42;;;;;;;16.97;80.95;99510.78;4937697;29;20074;-84
2023/04/24 00:22:26;;;;;;;4.75;2.00;;;;;;;16.80;82.47;99517.84;4937234;29;20071;-86
2023/04/24 00:24:54;;;;;;;9.90;2.30;;;;;;;16.88;82.02;99528.22;4927311;29;20083;-81
2023/04/24 00:27:20;;;;;;;4.93;1.88;;;;;;;16.97;82.89;99516.16;4918626;29;20072;-85
2023/04/24 00:29:48;;;;;;;4.32;1.80;;;;;;;16.96;82.32;99514.53;4918861;29;20060;-82
2023/04/24 00:32:14;;;;;;;5.53;1.73;;;;;;;17.02;83.75;99510.94;4917430;29;20036;-82
2023/04/24 00:34:40;;;;;;;3.13;1.70;;;;;;;17.18;83.08;99505.97;4901420;29;20201;-81
2023/04/24 00:37:06;;;;;;;5.78;1.98;;;;;;;16.99;84.66;99498.00;4918429;29;20036;-81
2023/04/24 00:39:32;;;;;;;5.95;1.70;;;;;;;16.98;85.61;99492.88;4933631;29;20122;-81
2023/04/24 00:41:58;;;;;;;4.85;1.70;;;;;;;16.96;84.96;99493.13;4935950;29;20079;-81
2023/04/24 00:44:24;;;;;;;4.28;1.73;;;;;;;16.76;86.72;99481.88;4934439;29;20042;-80
2023/04/24 00:46:54;;;;;;;4.55;1.50;;;;;;;16.75;86.66;99485.59;4936979;29;20040;-81
2023/04/24 00:49:20;;;;;;;5.28;2.13;;;;;;;16.72;87.09;99480.69;4936968;29;20035;-80
2023/04/24 00:51:46;;;;;;;4.95;1.50;;;;;;;16.75;86.30;99472.22;4936948;29;20047;-82
2023/04/24 00:54:15;;;;;;;3.70;1.92;;;;;;;16.90;85.89;99472.59;4935282;29;20090;-85
2023/04/24 00:56:42;;;;;;;5.22;1.88;;;;;;;16.96;85.93;99471.69;4934977;29;20028;-83
2023/04/24 00:59:08;;;;;;;3.72;1.60;;;;;;;16.84;88.66;99478.03;4934860;29;20080;-83
2023/04/24 01:01:34;;;;;;;4.85;1.45;;;;;;;16.87;88.50;99470.38;4934866;29;20134;-81
2023/04/24 01:04:00;;;;;;;3.95;1.73;;;;;;;16.71;90.78;99473.69;4935562;29;20043;-81
2023/04/24 01:06:30;;;;;;;3.42;1.73;;;;;;;16.86;90.24;99470.63;4936407;29;20156;-83
2023/04/24 01:08:57;;;;;;;2.63;1.08;;;;;;;16.87;89.59;99472.25;4919265;29;20427;-83
2023/04/24 01:11:22;;;;;;;4.82;1.77;;;;;;;16.81;89.58;99476.66;4936019;29;20055;-81
2023/04/24 01:13:48;;;;;;;3.20;1.75;;;;;;;16.80;89.10;99476.88;4921736;29;20094;-81
2023/04/24 01:16:17;;;;;;;6.53;2.50;;;;;;;16.70;88.88;99477.44;4916073;29;20036;-82
2023/04/24 01:18:43;;;;;;;4.68;2.38;;;;;;;16.84;86.77;99483.41;4917951;29;20051;-87
2023/04/24 01:21:14;;;;;;;6.30;2.45;;;;;;;17.01;84.20;99484.38;4918382;29;20121;-85
2023/04/24 01:23:39;;;;;;;5.85;2.95;;;;;;;16.73;86.55;99492.22;4917949;29;20062;-89
2023/04/24 01:26:05;;;;;;;7.43;3.20;;;;;;;16.55;88.27;99490.38;4933824;29;20554;-87
2023/04/24 01:28:34;;;;;;;8.27;3.75;;;;;;;16.39;87.27;99488.31;4935490;29;20035;-85
2023/04/24 01:30:59;;;;;;;6.63;3.47;;;;;;;16.51;86.50;99489.16;4937710;29;20039;-89
2023/04/24 01:33:28;;;;;;;6.65;3.40;;;;;;;16.57;85.83;99501.69;4947401;29;20028;-83
2023/04/24 01:35:54;;;;;;;7.43;3.67;;;;;;;16.60;86.10;99501.25;4957352;29;20051;-79
2023/04/24 01:38:20;;;;;;;7.90;3.60;;;;;;;16.43;87.75;99486.81;4958171;28;20046;-81
2023/04/24 01:40:46;;;;;;;5.35;3.47;;;;;;;16.23;90.27;99486.25;4949936;29;20059;-82
2023/04/24 01:43:12;;;;;;;8.57;3.72;;;;;;;16.24;90.65;99495.91;4946957;29;20027;-80
2023/04/24 01:45:38;;;;;;;6.43;4.32;;;;;;;16.06;93.52;99502.06;4952735;29;20450;-81
2023/04/24 01:48:04;;;;;;;8.23;3.90;;;;;;;16.11;93.06;99494.16;4946464;29;20059;-82
2023/04/24 01:50:30;;;;;;;9.95;4.13;;;;;;;16.00;94.12;99486.91;4947323;29;20482;-83
2023/04/24 01:52:56;;;;;;;7.35;4.00;;;;;;;15.92;95.23;99479.19;4951148;29;20035;-86
2023/04/24 01:55:23;;;;;;;8.60;4.50;;;;;;;15.84;96.30;99474.94;4944670;29;20089;-84
2023/04/24 01:57:48;;;;;;;8.52;4.47;;;;;;;15.92;95.28;99482.66;4939334;29;20059;-84
2023/04/24 02:00:14;;;;;;;8.05;4.70;;;;;;;15.86;94.65;99478.22;4937279;29;20063;-84
2023/04/24 02:02:41;;;;;;;11.85;4.88;;;;;;;15.95;92.76;99479.56;4953986;29;20016;-84
2023/04/24 02:05:07;;;;;;;6.07;4.47;;;;;;;16.06;92.33;99485.19;4953787;29;20028;-80
2023/04/24 02:07:35;;;;;;;10.15;4.97;;;;;;;16.13;91.09;99477.94;4944857;29;20050;-88
2023/04/24 02:10:01;;;;;;;8.52;4.97;;;;;;;16.04;91.84;99488.91;4946238;29;20441;-84
2023/04/24 02:12:27;;;;;;;11.45;5.25;;;;;;;15.85;93.65;99495.28;4946054;29;20024;-86
2023/04/24 02:14:52;;;;;;;11.98;5.80;;;;;;;15.73;94.83;99497.06;4950197;29;20404;-81
2023/04/24 02:17:19;;;;;;;9.45;5.63;;;;;;;15.70;95.34;99494.81;4952661;29;20038;-85
2023/04/24 02:19:45;;;;;;;7.53;5.00;;;;;;;15.75;95.47;99500.31;4951691;29;20044;-80
2023/04/24 02:22:10;;;;;;;12.02;5.70;;;;;;;15.67;96.63;99500.59;4929541;29;20066;-85
2023/04/24 02:24:37;;;;;;;9.15;5.28;;;;;;;15.66;97.79;99498.13;4929228;29;20033;-84
2023/04/24 02:27:02;;;;;;;11.95;5.45;;;;;;;15.64;98.04;99501.03;4918152;29;20635;-86
2023/04/24 02:29:28;;;;;;;10.48;5.60;;;;;;;15.58;100.00;99488.53;4918199;29;20033;-86
2023/04/24 02:31:54;;;;;;;14.23;6.18;;;;;;;15.66;99.83;99500.81;4917739;29;20040;-84
2023/04/24 02:34:19;;;;;;;9.73;5.43;;;;;;;15.64;100.00;99498.38;4917575;29;20039;-89
2023/04/24 02:36:45;;;;;;;8.48;5.30;;;;;;;15.83;100.00;99502.72;4925429;29;20030;-81
2023/04/24 02:39:10;;;;;;;11.45;6.07;;;;;;;15.65;100.00;99493.81;4936844;29;20044;-83
2023/04/24 02:41:37;;;;;;;12.48;6.50;;;;;;;15.64;100.00;99493.03;4936645;29;20126;-86
2023/04/24 02:44:03;;;;;;;15.13;5.90;;;;;;;15.61;100.00;99488.09;4936086;29;20503;-86
2023/04/24 02:46:29;;;;;;;10.18;5.70;;;;;;;15.73;100.00;99490.88;4940299;29;20373;-87
2023/04/24 02:48:54;;;;;;;14.63;6.70;;;;;;;15.74;100.00;99487.19;4939123;29;20487;-87
2023/04/24 02:51:20;;;;;;;9.82;6.25;;;;;;;15.71;100.00;99487.63;4939509;29;20071;-86
2023/04/24 02:53:46;;;;;;;10.75;6.13;;;;;;;15.48;100.00;99483.69;4938772;29;20068;-83
2023/04/24 02:56:14;;;;;;;12.52;6.50;;;;;;;15.50;100.00;99472.81;4937626;29;20046;-81
2023/04/24 02:58:40;;;;;;;11.45;7.30;;;;;;;15.36;100.00;99479.25;4938700;29;20471;-90
2023/04/24 03:01:05;;;;;;;11.10;7.25;;;;;;;15.31;100.00;99481.78;4938170;29;20058;-87
2023/04/24 03:03:31;;;;;;;12.70;6.95;;;;;;;15.37;100.00;99495.09;4938428;29;20082;-86
2023/04/24 03:05:58;;;;;;;13.55;7.15;;;;;;;15.17;100.00;99504.28;4939914;29;20035;-86
2023/04/24 03:08:24;;;;;;;17.23;7.05;;;;;;;15.27;100.00;99504.59;4939544;29;20054;-86
2023/04/24 03:10:49;;;;;;;19.17;7.03;;;;;;;15.24;100.00;99505.03;4938603;29;20356;-86
2023/04/24 03:13:16;;;;;;;14.45;6.72;;;;;;;15.26;100.00;99527.00;4939271;29;20040;-83
2023/04/24 03:15:41;;;;;;;13.30;7.38;;;;;;;15.16;100.00;99523.97;4939340;29;20031;-85
2023/04/24 03:18:06;;;;;;;11.70;7.13;;;;;;;15.06;100.00;99518.28;4939824;29;20040;-88
2023/04/24 03:20:32;;;;;;;15.65;7.68;;;;;;;15.01;100.00;99514.41;4938907;29;20048;-81
2023/04/24 03:22:58;;;;;;;10.52;7.15;;;;;;;15.06;100.00;99515.63;4937747;29;20055;-86
2023/04/24 03:25:24;;;;;;;9.18;6.68;;;;;;;15.16;100.00;99510.63;4921052;29;20135;-85
2023/04/24 03:27:51;;;;;;;12.60;6.88;;;;;;;15.34;100.00;99508.03;4913448;29;20032;-83
2023/04/24 03:30:33;;;;;;;14.50;7.57;;;;;;;15.18;100.00;99514.72;4932367;29;20503;-81
2023/04/24 03:33:00;;;;;;;15.43;7.43;;;;;;;15.27;100.00;99507.28;4934888;29;20116;-87
2023/04/24 03:35:29;;;;;;;12.70;7.82;;;;;;;15.28;100.00;99504.38;4934653;29;20072;-85
2023/04/24 03:37:57;;;;;;;20.95;7.85;;;;;;;15.09;100.00;99499.19;4918331;29;20091;-85
2023/04/24 03:40:41;;;;;;;18.63;7.53;;;;;;;15.09;100.00;99499.19;4929228;29;20114;-86
2023/04/24 03:43:27;;;;;;;13.07;7.97;;;;;;;15.03;100.00;99498.19;4928027;29;20054;-85
2023/04/24 03:45:54;;;;;;;11.65;7.38;;;;;;;15.15;100.00;99492.97;4937208;29;20024;-85
2023/04/24 03:48:19;;;;;;;14.80;8.13;;;;;;;15.00;100.00;99494.13;4938041;29;20047;-86
2023/04/24 03:50:45;;;;;;;16.05;7.55;;;;;;;15.33;100.00;99503.72;4937619;29;20475;-82
2023/04/24 03:53:11;;;;;;;14.55;7.70;;;;;;;15.50;100.00;99497.69;4938046;29;20039;-86
2023/04/24 03:55:40;;;;;;;14.77;8.23;;;;;;;15.19;100.00;99499.53;4936794;29;20405;-85
2023/04/24 03:58:05;;;;;;;17.05;9.13;;;;;;;14.86;100.00;99495.22;4938046;29;20028;-86
2023/04/24 04:00:32;;;;;;;18.90;8.63;;;;;;;14.72;100.00;99496.34;4937557;29;20120;-86
2023/04/24 04:03:17;;;;;;;18.35;9.60;;;;;;;14.60;100.00;99495.38;4938712;29;20076;-87
2023/04/24 04:05:43;;;;;;;14.93;9.63;;;;;;;14.52;100.00;99484.94;4938789;29;20407;-87
2023/04/24 04:08:08;;;;;;;21.70;9.68;;;;;;;14.48;100.00;99486.44;4938781;29;20054;-89
2023/04/24 04:10:33;;;;;;;17.40;9.18;;;;;;;14.61;100.00;99480.19;4938085;29;20040;-88
2023/04/24 04:12:59;;;;;;;18.73;10.38;;;;;;;14.61;100.00;99481.03;4938644;29;20043;-88
2023/04/24 04:15:25;;;;;;;18.27;9.57;;;;;;;14.41;100.00;99480.31;4938729;29;20035;-87
2023/04/24 04:17:51;;;;;;;14.48;9.32;;;;;;;14.48;100.00;99475.75;4938499;29;20483;-88
2023/04/24 04:20:16;;;;;;;14.82;9.48;;;;;;;14.33;100.00;99461.84;4937042;29;20396;-84
2023/04/24 04:22:42;;;;;;;21.17;10.02;;;;;;;13.89;100.00;99460.75;4933306;29;20060;-85
2023/04/24 04:25:11;;;;;;;21.92;11.57;;;;;;;13.92;100.00;99465.66;4917931;29;20044;-87
2023/04/24 04:27:37;;;;;;;22.00;12.25;;;;;;;13.81;100.00;99463.66;4915589;29;20048;-86
2023/04/24 04:30:09;;;;;;;17.70;10.88;;;;;;;13.73;100.00;99452.41;4938220;29;20131;-87
2023/04/24 04:32:44;;;;;;;19.27;11.02;;;;;;;13.98;100.00;99464.03;4936945;29;20038;-82
2023/04/24 04:35:10;;;;;;;21.92;12.40;;;;;;;13.97;100.00;99463.22;4937117;29;20103;-84
2023/04/24 04:37:36;;;;;;;27.80;12.45;;;;;;;13.97;100.00;99455.22;4937383;29;20036;-86
2023/04/24 04:40:33;;;;;;;22.48;12.07;;;;;;;13.88;100.00;99458.31;4933661;29;20063;-84
2023/04/24 04:43:03;;;;;;;22.40;11.82;;;;;;;14.07;100.00;99451.28;4937493;29;20036;-86
2023/04/24 04:45:34;;;;;;;20.77;12.10;;;;;;;14.06;100.00;99460.31;4936982;29;20036;-80
2023/04/24 04:48:27;;;;;;;22.25;10.90;;;;;;;14.15;100.00;99451.84;4936225;29;20048;-89
2023/04/24 04:50:53;;;;;;;16.92;10.55;;;;;;;14.36;100.00;99461.44;4935593;29;20146;-81
2023/04/24 04:53:21;;;;;;;26.13;11.80;;;;;;;14.15;100.00;99459.06;4935680;29;20074;-85
2023/04/24 04:55:47;;;;;;;18.15;11.98;;;;;;;13.96;100.00;99464.22;4936306;29;20107;-81
2023/04/24 04:58:15;;;;;;;21.38;13.50;;;;;;;13.81;100.00;99465.50;4947821;29;20028;-80
2023/04/24 05:00:41;;;;;;;22.63;12.55;;;;;;;13.82;100.00;99470.59;4952228;29;20044;-81
2023/04/24 05:03:23;;;;;;;;;;;;;;;13.82;100.00;99465.28;4948795;29;20062;-80
2023/04/24 05:05:55;;;;;;;27.50;12.73;;;;;;;13.90;100.00;99467.75;4936545;29;19919;-81
2023/04/24 05:08:22;;;;;;;22.95;12.77;;;;;;;14.04;100.00;99475.69;4921682;29;20094;-83
2023/04/24 05:10:47;;;;;;;20.33;13.70;;;;;;;14.15;100.00;99475.06;4935674;29;20130;-87
2023/04/24 05:13:13;;;;;;;22.17;13.90;;;;;;;13.98;100.00;99475.50;4936912;29;20122;-84
2023/04/24 05:15:39;;;;;;;21.35;13.95;;;;;;;14.03;100.00;99479.38;4935810;29;20036;-87
2023/04/24 05:18:05;;;;;;;21.88;12.55;;;;;;;14.00;100.00;99496.59;4937029;29;20035;-81
2023/04/24 05:20:33;;;;;;;19.40;12.75;;;;;;;14.02;100.00;99502.53;4936951;29;20043;-84
2023/04/24 05:22:59;;;;;;;21.48;13.77;;;;;;;14.17;100.00;99497.78;4932380;29;20494;-87
2023/04/24 05:25:26;;;;;;;26.38;14.18;;;;;;;14.25;100.00;99504.75;4930067;29;20028;-84
2023/04/24 05:27:59;;;;;;;22.80;14.40;;;;;;;14.02;100.00;99499.06;4936453;29;20043;-82
2023/04/24 05:30:25;;;;;;;26.08;15.30;;;;;;;13.90;100.00;99506.88;4936988;29;20403;-85
2023/04/24 05:32:50;;;;;;;23.40;14.55;;;;;;;14.01;100.00;99494.75;4930570;29;20024;-91
2023/04/24 05:35:16;;;;;;;27.55;16.40;;;;;;;13.83;100.00;99495.41;4938929;29;20550;-88
2023/04/24 05:37:47;;;;;;;28.35;15.48;;;;;;;13.81;100.00;99489.47;4933573;29;20070;-86
2023/04/24 05:40:13;;;;;;;24.98;16.48;;;;;;;14.14;100.00;99490.22;4916595;29;20051;-83
2023/04/24 05:42:38;;;;;;;29.33;16.45;;;;;;;14.47;100.00;99476.78;4937207;29;20040;-85
2023/04/24 05:45:09;;;;;;;26.60;16.00;;;;;;;14.68;100.00;99487.13;4939803;29;20047;-84
2023/04/24 05:47:35;;;;;;;25.35;14.88;;;;;;;15.19;100.00;99492.34;4924530;29;20092;-84
2023/04/24 05:50:00;;;;;;;26.23;15.95;;;;;;;15.21;100.00;99497.47;4936408;29;20059;-88
2023/04/24 05:52:26;;;;;;;24.17;14.32;;;;;;;15.61;100.00;99514.03;4932527;29;20074;-84
2023/04/24 05:54:52;;;;;;;22.58;13.35;;;;;;;15.59;100.00;99519.56;4934181;29;20491;-85
2023/04/24 05:57:21;;;;;;;21.40;12.20;;;;;;;15.66;100.00;99530.19;4934553;29;20123;-85
2023/04/24 05:59:57;;;;;;;18.05;12.05;;;;;;;15.91;100.00;99529.13;4934187;29;20032;-84
2023/04/24 06:02:24;;;;;;;18.13;11.73;;;;;;;16.11;100.00;99525.47;4934540;29;20039;-83
2023/04/24 06:04:51;;;;;;;14.90;10.77;;;;;;;16.26;100.00;99512.53;4934506;29;20118;-82
2023/04/24 06:07:17;;;;;;;19.08;11.60;;;;;;;15.92;100.00;99520.06;4934224;29;20484;-83
2023/04/24 06:09:43;;;;;;;18.98;10.98;;;;;;;15.65;100.00;99516.00;4934587;29;20040;-81
2023/04/24 06:12:09;;;;;;;28.15;11.32;;;;;;;15.66;100.00;99517.66;4935647;29;20043;-86
2023/04/24 06:14:49;;;;;;;21.85;11.60;;;;;;;15.62;100.00;99515.63;4935101;29;20489;-82
2023/04/24 06:17:22;;;;;;;22.75;11.30;;;;;;;15.60;100.00;99504.38;4925389;29;20043;-84
2023/04/24 06:19:49;;;;;;;20.33;11.35;;;;;;;15.62;100.00;99497.75;4936244;29;20071;-85
2023/04/24 06:22:16;;;;;;;22.88;11.70;;;;;;;15.58;100.00;99503.78;4938499;29;20099;-88
2023/04/24 06:24:42;;;;;;;20.88;12.40;;;;;;;15.57;100.00;99502.97;4936121;29;20029;-89
2023/04/24 06:27:08;;;;;;;19.05;11.48;;;;;;;15.71;100.00;99509.00;4940571;29;20040;-84
2023/04/24 06:29:34;;;;;;;22.50;11.95;;;;;;;15.55;100.00;99522.88;4937810;29;20090;-90
2023/04/24 06:31:59;;;;;;;22.02;11.30;;;;;;;15.65;100.00;99525.88;4940716;29;20044;-88
2023/04/24 06:34:25;;;;;;;22.50;12.55;;;;;;;15.65;100.00;99526.69;4944476;29;20119;-87
2023/04/24 06:36:51;;;;;;;20.05;12.48;;;;;;;15.42;100.00;99521.94;4944617;29;20047;-92
2023/04/24 06:39:16;;;;;;;16.77;11.85;;;;;;;15.41;100.00;99519.50;4946710;29;20036;-90
2023/04/24 06:41:56;;;;;;;19.27;12.95;;;;;;;15.37;100.00;99529.78;4952232;29;20040;-86
2023/04/24 06:44:40;;;;;;;18.05;11.65;;;;;;;15.46;100.00;99525.00;4943753;29;20042;-88
2023/04/24 06:47:10;;;;;;;22.27;12.32;;;;;;;15.40;100.00;99529.34;4949448;29;20122;-85
2023/04/24 06:49:41;;;;;;;17.05;11.52;;;;;;;15.59;100.00;99527.59;4952033;29;20107;-85
2023/04/24 06:52:07;;;;;;;25.38;13.48;;;;;;;15.54;100.00;99530.09;4956586;29;20028;-90
2023/04/24 06:54:36;;;;;;;23.30;12.48;;;;;;;16.08;100.00;99531.22;4957078;29;20035;-89
2023/04/24 06:57:02;;;;;;;20.88;12.18;;;;;;;16.67;100.00;99530.59;4936771;29;20046;-90
2023/04/24 06:59:28;;;;;;;27.70;13.32;;;;;;;16.60;100.00;99540.53;4950498;29;20028;-89
2023/04/24 07:01:53;;;;;;;19.98;12.40;;;;;;;17.07;100.00;99536.22;4951552;29;20071;-88
2023/04/24 07:04:38;;;;;;;19.15;10.77;;;;;;;17.87;100.00;99538.22;4951893;29;20453;-84
2023/04/24 07:07:04;;;;;;;19.33;10.52;;;;;;;19.24;100.00;99541.03;4946108;29;20131;-88
2023/04/24 07:09:29;;;;;;;14.75;9.98;;;;;;;20.05;100.00;99535.91;4921287;29;20036;-87
2023/04/24 07:11:56;;;;;;;15.57;9.65;;;;;;;20.67;100.00;99543.78;4930818;29;20083;-85
2023/04/24 07:14:25;;;;;;;15.73;8.90;;;;;;;22.17;100.00;99557.00;4942252;29;20116;-85
2023/04/24 07:16:50;;;;;;;17.60;8.50;;;;;;;22.53;100.00;99568.03;4924196;29;20040;-88
2023/04/24 07:19:19;;;;;;;14.95;8.50;;;;;;;21.91;100.00;99566.03;4943780;29;20442;-87
2023/04/24 07:21:46;;;;;;;17.05;7.78;;;;;;;21.23;100.00;99568.66;4943306;29;20042;-87
2023/04/24 07:24:12;;;;;;;17.27;9.15;;;;;;;21.53;100.00;99563.53;4945338;29;20059;-87
2023/04/24 07:26:39;;;;;;;15.75;8.75;;;;;;;21.80;100.00;99569.69;4957833;29;20044;-85
2023/04/24 07:29:05;;;;;;;14.35;8.35;;;;;;;21.95;100.00;99569.84;4945285;29;20061;-85
2023/04/24 07:31:31;;;;;;;12.70;8.85;;;;;;;22.96;100.00;99578.50;4945725;29;20550;-86
2023/04/24 07:33:58;;;;;;;13.98;7.90;;;;;;;22.55;100.00;99582.06;4952732;29;20133;-86
2023/04/24 07:36:25;;;;;;;15.10;7.97;;;;;;;22.56;100.00;99578.28;4946603;29;20040;-84
2023/04/24 07:38:56;;;;;;;10.00;7.43;;;;;;;21.79;100.00;99573.47;4938101;29;20044;-87
2023/04/24 07:41:24;;;;;;;13.63;7.63;;;;;;;22.06;100.00;99568.84;4932428;29;20087;-86
2023/04/24 07:43:59;;;;;;;16.02;8.05;;;;;;;21.80;100.00;99576.97;4947287;29;20039;-86
2023/04/24 07:46:30;;;;;;;14.63;7.63;;;;;;;21.59;100.00;99568.72;4944264;29;20058;-88
2023/04/24 07:48:55;;;;;;;13.93;6.88;;;;;;;21.97;100.00;99569.59;4926877;29;20028;-89
2023/04/24 07:51:21;;;;;;;9.32;6.75;;;;;;;22.02;100.00;99567.72;4946830;29;20044;-87
2023/04/24 07:53:48;;;;;;;13.07;6.78;;;;;;;24.11;86.38;99579.69;4952076;29;20032;-83
2023/04/24 07:56:14;;;;;;;19.00;8.10;;;;;;;22.91;91.79;99581.16;4953691;29;20035;-86
2023/04/24 07:58:40;;;;;;;14.52;7.90;;;;;;;22.47;96.25;99582.56;4952001;29;20091;-89
2023/04/24 08:01:06;;;;;;;11.95;5.45;;;;;;;22.96;93.77;99583.91;4945719;29;20040;-87
2023/04/24 08:03:58;;;;;;;9.77;5.32;;;;;;;23.54;85.53;99582.66;4937894;29;20031;-92
2023/04/24 08:06:25;;;;;;;12.40;5.75;;;;;;;23.06;87.73;99578.53;4883890;29;20065;-92
2023/04/24 08:08:52;;;;;;;13.25;5.53;;;;;;;23.48;87.59;99569.41;4857659;29;20205;-88
2023/04/24 08:11:17;;;;;;;10.70;6.00;;;;;;;22.87;90.29;99585.47;4881276;29;20560;-90
2023/04/24 08:13:43;;;;;;;13.50;6.88;;;;;;;22.67;89.71;99579.19;4863258;29;20128;-87
2023/04/24 08:16:11;;;;;;;11.13;6.72;;;;;;;22.49;86.78;99583.13;4872498;29;20041;-87
2023/04/24 08:18:40;;;;;;;10.05;6.20;;;;;;;22.29;89.12;99577.59;4876552;29;20125;-89
2023/04/24 08:21:05;;;;;;;10.93;5.43;;;;;;;23.48;85.21;99575.63;4862042;29;20041;-86
2023/04/24 08:23:34;;;;;;;8.32;5.38;;;;;;;23.94;82.02;99573.75;4851675;29;20489;-88
2023/04/24 08:26:00;;;;;;;10.95;6.03;;;;;;;23.92;79.57;99580.50;4873428;29;20129;-88
2023/04/24 08:28:25;;;;;;;9.00;5.38;;;;;;;23.06;84.19;99592.03;4877865;29;20453;-88
2023/04/24 08:30:54;;;;;;;9.85;5.45;;;;;;;22.77;81.40;99595.44;4849034;29;20061;-87
2023/04/24 08:33:23;;;;;;;8.80;5.43;;;;;;;23.32;79.35;99589.38;4894279;29;20060;-88
2023/04/24 08:35:49;;;;;;;12.60;6.65;;;;;;;23.07;83.66;99592.81;4879207;29;20774;-84
2023/04/24 08:38:16;;;;;;;9.23;5.45;;;;;;;23.85;78.98;99588.09;4887621;29;20069;-87
2023/04/24 08:40:43;;;;;;;10.10;5.63;;;;;;;23.36;79.84;99588.59;4879385;29;20182;-88
2023/04/24 08:43:10;;;;;;;11.77;6.07;;;;;;;22.57;83.19;99585.34;4917139;29;20055;-86
2023/04/24 08:45:36;;;;;;;16.13;5.82;;;;;;;21.54;87.18;99574.06;4951395;29;20039;-87
2023/04/24 08:48:02;;;;;;;11.30;5.88;;;;;;;20.78;95.66;99560.88;4947863;29;20095;-84
2023/04/24 08:50:29;;;;;;;11.80;4.80;;;;;;;21.85;90.41;99572.44;4950034;29;20060;-85
2023/04/24 08:52:56;;;;;;;9.23;4.57;;;;;;;22.57;83.26;99574.53;4949008;29;20427;-88
2023/04/24 08:55:24;;;;;;;12.90;4.90;;;;;;;22.88;79.50;99583.56;4951226;29;20403;-83
2023/04/24 08:57:52;;;;;;;9.32;3.97;;;;;;;23.43;73.19;99574.84;4951282;29;20038;-85
2023/04/24 09:00:19;;;;;;;7.93;3.80;;;;;;;23.52;75.17;99581.31;4931168;29;20036;-86
2023/04/24 09:02:48;;;;;;;5.05;3.40;;;;;;;23.73;69.28;99582.16;4948851;29;20046;-83
2023/04/24 09:05:15;;;;;;;6.38;3.58;;;;;;;22.79;74.59;99583.28;4929596;29;20032;-85
2023/04/24 09:07:44;;;;;;;8.25;3.33;;;;;;;22.32;77.58;99577.09;4930472;29;20040;-87
2023/04/24 09:10:10;;;;;;;7.85;3.28;;;;;;;22.60;78.05;99576.69;4920963;29;20040;-88
2023/04/24 09:12:36;;;;;;;7.85;4.32;;;;;;;23.09;76.39;99577.16;4919718;29;20039;-84
2023/04/24 09:15:05;;;;;;;11.00;4.32;;;;;;;23.89;69.42;99581.88;4924804;29;20409;-86
2023/04/24 09:17:31;;;;;;;7.07;4.10;;;;;;;24.08;68.08;99590.25;4938715;29;20079;-86
2023/04/24 09:19:57;;;;;;;8.27;4.50;;;;;;;23.34;72.19;99589.91;4938767;29;20043;-88
2023/04/24 09:22:23;;;;;;;8.13;3.97;;;;;;;24.13;69.56;99582.94;4937382;29;20039;-83
2023/04/24 09:25:09;;;;;;;8.77;4.30;;;;;;;23.70;69.95;99582.69;4952081;29;20443;-83
2023/04/24 09:27:35;;;;;;;9.90;4.65;;;;;;;22.97;73.30;99596.31;4937464;29;20066;-80
2023/04/24 09:30:01;;;;;;;11.20;3.88;;;;;;;23.51;72.44;99585.09;4945121;29;20047;-80
2023/04/24 09:32:28;;;;;;;8.57;4.95;;;;;;;23.36;71.29;99593.19;4947441;29;20088;-82
2023/04/24 09:35:07;;;;;;;9.85;4.30;;;;;;;23.47;68.36;99597.53;4952056;29;20499;-81
2023/04/24 09:37:41;;;;;;;7.53;4.45;;;;;;;24.33;66.17;99587.50;4942588;29;20048;-82
2023/04/24 09:40:11;;;;;;;7.35;3.97;;;;;;;24.71;65.02;99588.75;4942017;29;20044;-81
2023/04/24 09:42:39;;;;;;;5.65;3.63;;;;;;;25.16;64.64;99587.72;4940290;29;20099;-83
2023/04/24 09:45:10;;;;;;;7.93;4.03;;;;;;;24.94;60.80;99600.88;4938975;29;20542;-82
2023/04/24 09:47:39;;;;;;;8.70;4.15;;;;;;;24.81;61.97;99596.84;4939049;28;20405;-83
2023/04/24 09:50:16;;;;;;;9.40;4.10;;;;;;;25.81;58.20;99586.50;4941762;29;20068;-81
2023/04/24 09:52:47;;;;;;;7.50;4.15;;;;;;;25.82;56.02;99588.09;4947352;29;20036;-82
2023/04/24 09:55:17;;;;;;;5.35;3.10;;;;;;;26.37;53.35;99594.13;4941740;29;20506;-80
2023/04/24 09:57:53;;;;;;;5.25;2.95;;;;;;;25.22;55.34;99593.97;4939016;29;20487;-82
2023/04/24 10:00:27;;;;;;;5.40;3.80;;;;;;;25.13;59.64;99591.81;4939222;29;20043;-86
2023/04/24 10:03:00;;;;;;;5.93;3.10;;;;;;;26.41;54.09;99593.28;4941404;29;20036;-84
2023/04/24 10:05:32;;;;;;;4.70;3.50;;;;;;;26.65;49.88;99599.50;4957282;23;20129;-85
2023/04/24 10:08:02;;;;;;;5.78;3.83;;;;;;;26.05;50.76;99587.34;4983650;28;20050;-86
2023/04/24 10:10:29;;;;;;;6.10;3.60;;;;;;;25.84;52.64;99585.13;4971417;28;20035;-87
2023/04/24 10:12:55;;;;;;;6.93;3.53;;;;;;;26.46;50.75;99593.22;4962309;28;20376;-85
2023/04/24 10:15:28;;;;;;;5.07;4.07;;;;;;;27.42;47.49;99599.34;4962146;28;20039;-83
2023/04/24 10:17:53;;;;;;;5.63;3.70;;;;;;;26.45;49.85;99585.38;4963929;28;20196;-82
2023/04/24 10:20:24;;;;;;;8.82;3.75;;;;;;;25.97;51.75;99587.97;4967651;28;20071;-83
2023/04/24 10:22:51;;;;;;;7.55;3.08;;;;;;;25.98;50.71;99581.47;4976690;28;20073;-82
2023/04/24 10:25:23;;;;;;;5.30;2.97;;;;;;;26.07;49.37;99585.19;4973589;28;20039;-84
2023/04/24 10:27:52;;;;;;;9.25;3.38;;;;;;;26.58;49.10;99596.31;4976068;28;20096;-84
2023/04/24 10:30:19;;;;;;;7.05;3.28;;;;;;;26.37;50.55;99583.28;4984524;28;20107;-83
2023/04/24 10:32:59;;;;;;;;;;;;;;;;;;;;;
2023/04/24 10:35:34;;;;;;;5.97;2.90;;;;;;;27.20;47.67;99598.03;4974039;28;20039;-84
2023/04/24 10:38:13;;;;;;;5.37;3.00;;;;;;;27.91;42.32;99596.94;4972525;28;20122;-83
2023/04/24 10:40:43;;;;;;;5.13;3.10;;;;;;;28.28;42.43;99595.22;4964272;28;20099;-84
2023/04/24 10:43:11;;;;;;;7.25;3.35;;;;;;;27.90;42.95;99605.41;4966688;28;20782;-88
2023/04/24 10:45:43;;;;;;;6.13;3.42;;;;;;;27.81;44.02;99602.56;4962156;28;20028;-85
2023/04/24 10:48:13;;;;;;;8.32;3.03;;;;;;;28.81;40.37;99598.31;4964644;28;20078;-87
2023/04/24 10:50:53;;;;;;;6.20;3.28;;;;;;;28.96;40.83;99600.72;4971774;28;20121;-87
2023/04/24 10:53:28;;;;;;;7.18;3.13;;;;;;;28.35;41.73;99601.09;4958529;28;20031;-86
2023/04/24 10:56:09;;;;;;;8.40;3.70;;;;;;;28.86;40.43;99600.94;4959075;28;20062;-86
2023/04/24 10:58:44;;;;;;;5.50;3.55;;;;;;;27.44;44.82;99597.19;4960046;29;20047;-89
2023/04/24 11:01:24;;;;;;;10.30;4.50;;;;;;;28.21;42.20;99596.44;4962081;28;20049;-89
2023/04/24 11:03:56;;;;;;;6.50;3.20;;;;;;;28.15;41.63;99586.75;4961586;28;20039;-88
2023/04/24 11:06:35;;;;;;;8.00;3.00;;;;;;;27.68;43.29;99593.22;4982050;28;20055;-91
2023/04/24 11:09:07;;;;;;;4.78;2.60;;;;;;;28.14;41.30;99578.84;4978691;28;20035;-93
2023/04/24 11:11:34;;;;;;;7.10;2.80;;;;;;;28.26;41.21;99575.66;4977920;28;20038;-90
2023/04/24 11:14:15;;;;;;;5.35;3.17;;;;;;;27.71;42.86;99572.75;4966023;28;20035;-91
2023/04/24 11:16:53;;;;;;;5.30;3.10;;;;;;;27.75;43.03;99576.50;4968547;29;20043;-88
2023/04/24 11:19:24;;;;;;;6.53;3.40;;;;;;;27.24;43.01;99566.38;4949344;28;20134;-91
2023/04/24 11:22:20;;;;;;;5.97;3.10;;;;;;;28.08;42.74;99561.81;4981682;28;20067;-89
2023/04/24 11:25:11;;;;;;;6.38;3.40;;;;;;;28.39;41.94;99569.41;4977909;28;20058;-92
2023/04/24 11:31:01;;;;;;;4.97;3.72;;;;;;;27.65;42.24;99571.25;5185392;23;20051;-89
2023/04/24 11:33:32;;;;;;;6.85;3.60;;;;;;;28.27;40.95;99560.94;4960598;28;20059;-87